createdAt,value
2022-07-25T00:01:44.009Z,96867.16
2022-07-25T00:04:12.683Z,96867.31
2022-07-25T00:06:41.796Z,96863.22
2022-07-25T00:09:08.980Z,96866.63
2022-07-25T00:11:35.728Z,96849.97
2022-07-25T00:14:02.444Z,96860.09
2022-07-25T00:16:29.317Z,96868.56
2022-07-25T00:18:56.074Z,96860.09
2022-07-25T00:21:22.769Z,96863.69
2022-07-25T00:23:49.662Z,96862.66
2022-07-25T00:26:17.079Z,96858.50
2022-07-25T00:28:44.085Z,96862.41
2022-07-25T00:31:11.181Z,96869.31
2022-07-25T00:33:38.031Z,96856.09
2022-07-25T00:36:05.059Z,96863.78
2022-07-25T00:38:31.670Z,96863.09
2022-07-25T00:40:58.337Z,96859.72
2022-07-25T00:43:25.021Z,96861.22
2022-07-25T00:45:51.668Z,96863.09
2022-07-25T00:48:18.464Z,96858.81
2022-07-25T00:50:45.109Z,96851.06
2022-07-25T00:53:11.778Z,96845.28
2022-07-25T00:55:38.755Z,96850.50
2022-07-25T00:58:05.352Z,96839.53
2022-07-25T01:00:32.385Z,96843.91
2022-07-25T01:02:59.428Z,96833.94
2022-07-25T01:05:26.360Z,96834.19
2022-07-25T01:07:53.648Z,96838.59
2022-07-25T01:10:20.280Z,96844.16
2022-07-25T01:12:52.385Z,96840.31
2022-07-25T01:15:20.515Z,96834.97
2022-07-25T01:17:47.452Z,96842.84
2022-07-25T01:20:19.052Z,96839.72
2022-07-25T01:22:46.374Z,96837.97
2022-07-25T01:25:13.904Z,96844.25
2022-07-25T01:27:41.435Z,96848.50
2022-07-25T01:30:10.212Z,96849.44
2022-07-25T01:32:37.562Z,96849.06
2022-07-25T01:35:07.096Z,96844.22
2022-07-25T01:37:33.945Z,96841.78
2022-07-25T01:40:01.191Z,96840.84
2022-07-25T01:42:28.275Z,96837.16
2022-07-25T01:44:55.341Z,96838.28
2022-07-25T01:47:22.446Z,96836.78
2022-07-25T01:49:49.033Z,96834.84
2022-07-25T01:52:15.724Z,96825.91
2022-07-25T01:54:43.565Z,96832.28
2022-07-25T01:57:10.859Z,96829.75
2022-07-25T01:59:39.425Z,96821.97
2022-07-25T02:02:07.901Z,96822.06
2022-07-25T02:04:35.675Z,96813.53
2022-07-25T02:07:02.838Z,96814.91
2022-07-25T02:09:29.471Z,96814.31
2022-07-25T02:11:56.344Z,96813.72
2022-07-25T02:14:23.756Z,96812.69
2022-07-25T02:16:50.490Z,96811.81
2022-07-25T02:19:17.208Z,96799.00
2022-07-25T02:21:43.834Z,96794.94
2022-07-25T02:24:10.522Z,96801.59
2022-07-25T02:26:37.217Z,96791.28
2022-07-25T02:29:03.906Z,96801.47
2022-07-25T02:31:30.558Z,96790.41
2022-07-25T02:33:57.227Z,96791.38
2022-07-25T02:36:24.125Z,96799.69
2022-07-25T02:38:50.835Z,96794.84
2022-07-25T02:41:17.579Z,96793.94
2022-07-25T02:43:44.156Z,96797.63
2022-07-25T02:46:10.893Z,96794.72
2022-07-25T02:48:37.635Z,96793.66
2022-07-25T02:51:05.559Z,96795.88
2022-07-25T02:53:55.577Z,96788.50
2022-07-25T02:56:19.124Z,96785.72
2022-07-25T02:58:48.075Z,96789.25
2022-07-25T03:01:15.265Z,96783.94
2022-07-25T03:03:42.239Z,96783.78
2022-07-25T03:06:08.946Z,96780.09
2022-07-25T03:08:35.598Z,96773.91
2022-07-25T03:11:03.298Z,96774.59
2022-07-25T03:13:29.963Z,96775.94
2022-07-25T03:15:56.539Z,96771.31
2022-07-25T03:18:23.121Z,96784.97
2022-07-25T03:20:49.805Z,96789.78
2022-07-25T03:23:16.445Z,96785.13
2022-07-25T03:25:43.057Z,96783.34
2022-07-25T03:28:09.755Z,96791.72
2022-07-25T03:30:36.341Z,96786.50
2022-07-25T03:33:03.000Z,96788.50
2022-07-25T03:35:29.587Z,96784.34
2022-07-25T03:37:57.369Z,96790.03
2022-07-25T03:40:23.979Z,96788.50
2022-07-25T03:42:50.582Z,96782.00
2022-07-25T03:45:17.949Z,96787.72
2022-07-25T03:47:44.700Z,96794.53
2022-07-25T03:50:11.540Z,96794.09
2022-07-25T03:52:38.526Z,96794.72
2022-07-25T03:55:09.863Z,96792.06
2022-07-25T03:57:36.931Z,96788.91
2022-07-25T04:00:06.250Z,96789.06
2022-07-25T04:02:33.391Z,96794.44
2022-07-25T04:05:00.122Z,96789.19
2022-07-25T04:07:26.820Z,96790.16
2022-07-25T04:09:53.466Z,96794.16
2022-07-25T04:12:20.190Z,96790.53
2022-07-25T04:14:46.854Z,96790.59
2022-07-25T04:17:13.501Z,96788.50
2022-07-25T04:19:40.233Z,96781.53
2022-07-25T04:22:06.985Z,96777.72
2022-07-25T04:24:33.597Z,96775.34
2022-07-25T04:27:00.198Z,96772.44
2022-07-25T04:29:27.089Z,96763.34
2022-07-25T04:31:53.735Z,96761.69
2022-07-25T04:34:20.680Z,96756.78
2022-07-25T04:36:47.264Z,96754.97
2022-07-25T04:39:13.922Z,96760.69
2022-07-25T04:41:40.504Z,96761.63
2022-07-25T04:44:09.091Z,96747.03
2022-07-25T04:46:36.106Z,96749.22
2022-07-25T04:49:02.907Z,96751.88
2022-07-25T04:51:29.576Z,96745.31
2022-07-25T04:53:56.259Z,96738.38
2022-07-25T04:56:22.900Z,96738.78
2022-07-25T04:58:49.649Z,96736.25
2022-07-25T05:01:16.367Z,96736.00
2022-07-25T05:03:50.153Z,96727.00
2022-07-25T05:06:18.858Z,96722.53
2022-07-25T05:08:46.300Z,96728.66
2022-07-25T05:11:13.119Z,96721.28
2022-07-25T05:13:39.708Z,96728.06
2022-07-25T05:16:06.594Z,96721.97
2022-07-25T05:18:34.859Z,96714.75
2022-07-25T05:21:01.702Z,96715.63
2022-07-25T05:23:28.282Z,96723.78
2022-07-25T05:25:54.920Z,96713.38
2022-07-25T05:28:21.489Z,96712.38
2022-07-25T05:30:48.095Z,96714.25
2022-07-25T05:33:15.007Z,96715.03
2022-07-25T05:35:41.882Z,96714.22
2022-07-25T05:38:08.552Z,96711.47
2022-07-25T05:40:35.164Z,96713.31
2022-07-25T05:43:03.539Z,96703.47
2022-07-25T05:45:30.990Z,96704.41
2022-07-25T05:47:57.567Z,96705.75
2022-07-25T05:50:24.305Z,96696.84
2022-07-25T05:52:50.988Z,96692.41
2022-07-25T05:55:17.900Z,96702.06
2022-07-25T05:57:44.507Z,96691.69
2022-07-25T06:00:12.050Z,96689.53
2022-07-25T06:02:38.858Z,96684.78
2022-07-25T06:05:05.933Z,96682.41
2022-07-25T06:07:32.485Z,96683.66
2022-07-25T06:09:59.092Z,96681.06
2022-07-25T06:12:25.702Z,96673.47
2022-07-25T06:14:52.591Z,96661.16
2022-07-25T06:17:20.127Z,96664.84
2022-07-25T06:19:46.931Z,96656.25
2022-07-25T06:22:14.536Z,96651.34
2022-07-25T06:24:41.537Z,96651.72
2022-07-25T06:27:09.019Z,96644.16
2022-07-25T06:29:35.827Z,96652.59
2022-07-25T06:32:02.757Z,96643.63
2022-07-25T06:34:29.571Z,96633.44
2022-07-25T06:36:57.665Z,96636.00
2022-07-25T06:39:25.095Z,96629.72
2022-07-25T06:41:52.206Z,96636.63
2022-07-25T06:44:18.879Z,96631.66
2022-07-25T06:46:45.554Z,96637.88
2022-07-25T06:49:12.448Z,96640.44
2022-07-25T06:51:39.135Z,96629.59
2022-07-25T06:54:06.266Z,96628.38
2022-07-25T06:56:33.194Z,96628.53
2022-07-25T06:59:00.641Z,96630.69
2022-07-25T07:01:27.888Z,96632.44
2022-07-25T07:03:54.892Z,96631.09
2022-07-25T07:06:21.744Z,96638.19
2022-07-25T07:08:48.400Z,96638.72
2022-07-25T07:11:16.837Z,96634.38
2022-07-25T07:13:43.519Z,96639.75
2022-07-25T07:16:10.258Z,96629.63
2022-07-25T07:18:37.558Z,96629.63
2022-07-25T07:21:05.456Z,96637.53
2022-07-25T07:23:32.823Z,96623.47
2022-07-25T07:26:00.895Z,96627.47
2022-07-25T07:28:27.510Z,96625.19
2022-07-25T07:33:40.709Z,96624.63
2022-07-25T07:36:07.587Z,96631.31
2022-07-25T07:38:34.621Z,96624.28
2022-07-25T07:41:01.222Z,96632.13
2022-07-25T07:43:30.416Z,96625.41
2022-07-25T07:46:01.144Z,96629.41
2022-07-25T07:48:31.137Z,96622.13
2022-07-25T07:50:59.462Z,96614.34
2022-07-25T07:53:46.237Z,96617.38
2022-07-25T07:56:14.036Z,96615.09
2022-07-25T07:58:40.761Z,96613.66
2022-07-25T08:01:07.703Z,96617.50
2022-07-25T08:03:34.523Z,96604.13
2022-07-25T08:06:01.169Z,96613.06
2022-07-25T08:08:31.060Z,96593.25
2022-07-25T08:10:59.329Z,96590.03
2022-07-25T08:13:29.070Z,96598.34
2022-07-25T08:15:59.576Z,96591.88
2022-07-25T08:18:29.709Z,96597.69
2022-07-25T08:20:56.519Z,96589.13
2022-07-25T08:23:23.340Z,96580.34
2022-07-25T08:25:50.087Z,96582.19
2022-07-25T08:28:16.843Z,96590.31
2022-07-25T08:30:43.791Z,96585.31
2022-07-25T08:33:13.620Z,96590.78
2022-07-25T08:35:42.041Z,96579.16
2022-07-25T08:38:11.653Z,96588.19
2022-07-25T08:40:39.156Z,96580.41
2022-07-25T08:43:06.005Z,96581.88
2022-07-25T08:45:33.417Z,96579.16
2022-07-25T08:48:00.136Z,96574.47
2022-07-25T08:50:28.880Z,96572.84
2022-07-25T08:53:16.570Z,96567.06
2022-07-25T08:55:46.857Z,96570.06
2022-07-25T08:58:16.199Z,96573.50
2022-07-25T09:00:43.843Z,96568.53
2022-07-25T09:03:11.405Z,96561.94
2022-07-25T09:05:38.882Z,96559.66
2022-07-25T09:08:08.693Z,96556.16
2022-07-25T09:10:36.935Z,96555.28
2022-07-25T09:13:10.983Z,96541.56
2022-07-25T09:15:45.334Z,96538.09
2022-07-25T09:18:16.052Z,96537.25
2022-07-25T09:20:49.378Z,96529.69
2022-07-25T09:23:38.538Z,96530.22
2022-07-25T09:26:14.986Z,96533.25
2022-07-25T09:28:46.462Z,96516.44
2022-07-25T09:31:15.016Z,96510.50
2022-07-25T09:34:00.409Z,96510.91
2022-07-25T09:36:27.455Z,96513.13
2022-07-25T09:39:00.973Z,96515.50
2022-07-25T09:41:43.833Z,96504.16
2022-07-25T09:44:23.023Z,96498.00
2022-07-25T09:46:50.585Z,96480.03
2022-07-25T09:49:17.482Z,96484.13
2022-07-25T09:51:44.306Z,96483.16
2022-07-25T09:54:11.755Z,96487.09
2022-07-25T09:56:38.519Z,96486.69
2022-07-25T09:59:06.146Z,96477.09
2022-07-25T10:01:36.965Z,96468.91
2022-07-25T10:04:04.107Z,96470.84
2022-07-25T10:06:40.085Z,96464.84
2022-07-25T10:09:14.001Z,96460.94
2022-07-25T10:11:41.481Z,96451.84
2022-07-25T10:14:12.804Z,96451.41
2022-07-25T10:16:47.046Z,96447.88
2022-07-25T10:19:14.248Z,96432.44
2022-07-25T10:21:41.156Z,96438.28
2022-07-25T10:24:09.993Z,96437.88
2022-07-25T10:26:41.750Z,96435.72
2022-07-25T10:29:13.997Z,96428.00
2022-07-25T10:31:51.027Z,96421.19
2022-07-25T10:34:29.158Z,96419.28
2022-07-25T10:36:57.411Z,96427.03
2022-07-25T10:39:24.251Z,96416.81
2022-07-25T10:42:02.425Z,96426.97
2022-07-25T10:44:40.509Z,96404.22
2022-07-25T10:47:09.541Z,96416.13
2022-07-25T10:49:46.439Z,96406.28
2022-07-25T10:52:29.486Z,96389.72
2022-07-25T10:55:01.137Z,96396.88
2022-07-25T10:57:32.006Z,96395.56
2022-07-25T11:00:06.990Z,96388.59
2022-07-25T11:02:33.902Z,96390.63
2022-07-25T11:05:04.479Z,96383.75
2022-07-25T11:07:36.122Z,96385.50
2022-07-25T11:10:05.200Z,96381.59
2022-07-25T11:12:32.459Z,96376.47
2022-07-25T11:15:07.603Z,96379.22
2022-07-25T11:17:34.826Z,96377.69
2022-07-25T11:20:09.481Z,96372.88
2022-07-25T11:22:36.298Z,96372.34
2022-07-25T11:25:11.034Z,96373.47
2022-07-25T11:27:37.651Z,96373.34
2022-07-25T11:30:15.458Z,96370.66
2022-07-25T11:32:45.015Z,96375.19
2022-07-25T11:35:14.005Z,96371.53
2022-07-25T11:37:43.487Z,96371.25
2022-07-25T11:40:11.060Z,96365.03
2022-07-25T11:42:43.650Z,96363.09
2022-07-25T11:45:22.137Z,96355.91
2022-07-25T11:48:09.153Z,96348.88
2022-07-25T11:50:38.221Z,96343.44
2022-07-25T11:53:06.897Z,96347.03
2022-07-25T11:55:37.377Z,96333.31
2022-07-25T11:58:04.787Z,96330.69
2022-07-25T12:00:35.810Z,96326.84
2022-07-25T12:03:12.976Z,96322.75
2022-07-25T12:05:42.790Z,96314.13
2022-07-25T12:08:20.919Z,96318.56
2022-07-25T12:10:49.318Z,96307.75
2022-07-25T12:13:30.205Z,96304.38
2022-07-25T12:15:58.554Z,96304.66
2022-07-25T12:18:25.806Z,96296.75
2022-07-25T12:20:53.306Z,96298.28
2022-07-25T12:23:21.762Z,96289.63
2022-07-25T12:25:48.448Z,96290.81
2022-07-25T12:28:15.267Z,96281.66
2022-07-25T12:30:44.064Z,96258.34
2022-07-25T12:33:11.887Z,96265.09
2022-07-25T12:35:40.071Z,96277.47
2022-07-25T12:38:06.781Z,96269.63
2022-07-25T12:40:33.856Z,96270.41
2022-07-25T12:43:01.237Z,96249.69
2022-07-25T12:45:28.040Z,96255.66
2022-07-25T12:47:55.092Z,96261.25
2022-07-25T12:50:21.743Z,96249.25
2022-07-25T12:52:48.718Z,96255.34
2022-07-25T12:55:17.755Z,96250.25
2022-07-25T12:57:44.834Z,96239.84
2022-07-25T13:00:14.213Z,96250.53
2022-07-25T13:02:40.937Z,96247.66
2022-07-25T13:05:08.109Z,96252.47
2022-07-25T13:07:35.030Z,96244.25
2022-07-25T13:10:03.698Z,96244.94
2022-07-25T13:12:30.544Z,96224.91
2022-07-25T13:14:57.566Z,96221.53
2022-07-25T13:17:27.547Z,96217.66
2022-07-25T13:19:55.143Z,96220.22
2022-07-25T13:22:21.754Z,96230.25
2022-07-25T13:24:48.412Z,96230.31
2022-07-25T13:27:17.742Z,96230.53
2022-07-25T13:29:44.355Z,96235.59
2022-07-25T13:32:12.108Z,96216.69
2022-07-25T13:34:38.936Z,96213.59
2022-07-25T13:37:06.124Z,96211.31
2022-07-25T13:39:33.744Z,96208.72
2022-07-25T13:42:00.446Z,96194.38
2022-07-25T13:44:27.083Z,96193.00
2022-07-25T13:46:53.785Z,96184.50
2022-07-25T13:49:20.499Z,96191.84
2022-07-25T13:51:47.659Z,96180.47
2022-07-25T13:54:14.448Z,96177.31
2022-07-25T13:56:42.510Z,96179.63
2022-07-25T13:59:09.873Z,96171.19
2022-07-25T14:01:37.040Z,96166.00
2022-07-25T14:04:03.701Z,96160.09
2022-07-25T14:06:30.296Z,96160.59
2022-07-25T14:08:56.903Z,96141.84
2022-07-25T14:11:27.319Z,96157.19
2022-07-25T14:13:57.479Z,96155.44
2022-07-25T14:16:24.180Z,96151.81
2022-07-25T14:18:50.930Z,96148.00
2022-07-25T14:21:17.542Z,96153.66
2022-07-25T14:23:44.131Z,96150.28
2022-07-25T14:26:10.791Z,96145.16
2022-07-25T14:28:37.539Z,96147.75
2022-07-25T14:31:04.307Z,96138.34
2022-07-25T14:33:31.135Z,96127.56
2022-07-25T14:35:57.730Z,96139.22
2022-07-25T14:38:24.374Z,96137.91
2022-07-25T14:40:51.494Z,96144.00
2022-07-25T14:43:18.138Z,96129.22
2022-07-25T14:45:44.880Z,96129.13
2022-07-25T14:48:11.542Z,96116.84
2022-07-25T14:50:38.126Z,96134.84
2022-07-25T14:53:04.774Z,96130.78
2022-07-25T14:55:31.602Z,96129.28
2022-07-25T14:58:02.361Z,96126.72
2022-07-25T15:00:29.774Z,96118.91
2022-07-25T15:02:56.876Z,96123.47
2022-07-25T15:05:23.597Z,96124.34
2022-07-25T15:07:50.207Z,96121.59
2022-07-25T15:10:17.412Z,96120.22
2022-07-25T15:12:44.052Z,96107.25
2022-07-25T15:15:11.564Z,96108.13
2022-07-25T15:17:39.201Z,96116.53
2022-07-25T15:20:06.497Z,96115.22
2022-07-25T15:22:33.130Z,96117.66
2022-07-25T15:25:37.244Z,96112.44
2022-07-25T15:27:46.360Z,96096.28
2022-07-25T15:30:13.127Z,96098.81
2022-07-25T15:32:40.278Z,96097.84
2022-07-25T15:35:08.426Z,96110.19
2022-07-25T15:37:35.512Z,96098.13
2022-07-25T15:40:02.535Z,96100.19
2022-07-25T15:42:29.628Z,96090.81
2022-07-25T15:45:22.276Z,96100.88
2022-07-25T15:47:46.245Z,96101.50
2022-07-25T15:50:20.319Z,96087.41
2022-07-25T15:52:47.185Z,96089.06
2022-07-25T15:55:13.895Z,96091.56
2022-07-25T15:57:40.774Z,96095.13
2022-07-25T16:00:08.905Z,96091.19
2022-07-25T16:02:36.112Z,96093.78
2022-07-25T16:05:04.179Z,96089.28
2022-07-25T16:07:30.990Z,96092.28
2022-07-25T16:09:57.613Z,96090.59
2022-07-25T16:12:28.322Z,96091.78
2022-07-25T16:14:56.088Z,96089.91
2022-07-25T16:17:23.227Z,96090.91
2022-07-25T16:19:49.820Z,96094.53
2022-07-25T16:22:16.442Z,96091.81
2022-07-25T16:24:43.072Z,96093.09
2022-07-25T16:27:10.133Z,96100.44
2022-07-25T16:29:37.143Z,96093.78
2022-07-25T16:32:03.922Z,96100.28
2022-07-25T16:34:30.524Z,96102.56
2022-07-25T16:36:57.434Z,96106.19
2022-07-25T16:39:24.060Z,96110.72
2022-07-25T16:41:52.004Z,96106.19
2022-07-25T16:44:18.715Z,96120.38
2022-07-25T16:46:45.527Z,96115.88
2022-07-25T16:49:15.337Z,96117.63
2022-07-25T16:51:45.320Z,96121.44
2022-07-25T16:54:12.276Z,96141.00
2022-07-25T16:56:39.056Z,96127.09
2022-07-25T16:59:06.856Z,96131.66
2022-07-25T17:01:35.138Z,96138.50
2022-07-25T17:04:01.848Z,96136.47
2022-07-25T17:06:28.804Z,96129.13
2022-07-25T17:08:55.500Z,96129.84
2022-07-25T17:11:22.615Z,96134.88
2022-07-25T17:13:49.255Z,96134.44
2022-07-25T17:16:16.279Z,96123.84
2022-07-25T17:18:43.009Z,96127.94
2022-07-25T17:21:10.767Z,96137.72
2022-07-25T17:23:37.407Z,96139.56
2022-07-25T17:26:05.472Z,96146.25
2022-07-25T17:28:32.448Z,96154.41
2022-07-25T17:30:59.251Z,96163.28
2022-07-25T17:33:26.447Z,96175.72
2022-07-25T17:35:53.209Z,96195.25
2022-07-25T17:38:25.333Z,96179.53
2022-07-25T17:40:52.842Z,96169.22
2022-07-25T17:43:19.775Z,96167.97
2022-07-25T17:45:46.356Z,96172.72
2022-07-25T17:48:12.936Z,96179.09
2022-07-25T17:50:39.572Z,96175.72
2022-07-25T17:53:06.192Z,96185.03
2022-07-25T17:55:38.215Z,96174.59
2022-07-25T17:58:05.659Z,96178.44
2022-07-25T18:00:32.483Z,96183.00
2022-07-25T18:02:59.274Z,96170.88
2022-07-25T18:05:26.126Z,96165.44
2022-07-25T18:07:53.947Z,96162.47
2022-07-25T18:10:23.686Z,96164.00
2022-07-25T18:12:50.855Z,96153.94
2022-07-25T18:15:17.824Z,96156.72
2022-07-25T18:17:45.927Z,96160.06
2022-07-25T18:20:14.086Z,96159.53
2022-07-25T18:22:41.548Z,96168.13
2022-07-25T18:25:11.525Z,96161.31
2022-07-25T18:27:45.540Z,96167.25
2022-07-25T18:30:13.673Z,96172.63
2022-07-25T18:32:40.832Z,96170.91
2022-07-25T18:35:08.065Z,96165.31
2022-07-25T18:37:40.299Z,96171.94
2022-07-25T18:40:08.651Z,96163.84
2022-07-25T18:42:36.492Z,96169.78
2022-07-25T18:45:05.023Z,96170.47
2022-07-25T18:47:34.924Z,96171.88
2022-07-25T18:50:01.876Z,96165.16
2022-07-25T18:52:34.694Z,96167.75
2022-07-25T18:55:06.549Z,96169.19
2022-07-25T18:57:33.575Z,96167.47
2022-07-25T19:00:03.097Z,96165.72
2022-07-25T19:02:30.328Z,96173.53
2022-07-25T19:04:57.063Z,96175.16
2022-07-25T19:07:23.836Z,96181.09
2022-07-25T19:09:50.450Z,96184.47
2022-07-25T19:12:17.198Z,96186.53
2022-07-25T19:14:44.263Z,96177.59
2022-07-25T19:17:10.929Z,96188.28
2022-07-25T19:19:37.576Z,96192.41
2022-07-25T19:22:04.153Z,96197.53
2022-07-25T19:24:31.479Z,96206.44
2022-07-25T19:26:58.958Z,96200.53
2022-07-25T19:29:26.833Z,96208.19
2022-07-25T19:31:54.485Z,96220.09
2022-07-25T19:34:21.184Z,96212.75
2022-07-25T19:36:47.825Z,96209.84
2022-07-25T19:39:14.915Z,96215.69
2022-07-25T19:41:46.742Z,96220.13
2022-07-25T19:44:13.968Z,96221.84
2022-07-25T19:46:40.765Z,96222.63
2022-07-25T19:49:07.995Z,96220.97
2022-07-25T19:51:34.805Z,96223.09
2022-07-25T19:54:03.434Z,96227.97
2022-07-25T19:56:30.969Z,96223.78
2022-07-25T19:58:58.323Z,96220.03
2022-07-25T20:01:25.050Z,96226.88
2022-07-25T20:03:51.720Z,96232.63
2022-07-25T20:06:20.659Z,96233.94
2022-07-25T20:08:50.828Z,96227.00
2022-07-25T20:11:17.734Z,96224.38
2022-07-25T20:13:44.473Z,96220.69
2022-07-25T20:16:11.223Z,96224.69
2022-07-25T20:18:37.929Z,96233.91
2022-07-25T20:21:05.162Z,96240.03
2022-07-25T20:23:31.939Z,96234.13
2022-07-25T20:26:00.135Z,96231.84
2022-07-25T20:28:27.241Z,96243.41
2022-07-25T20:30:56.034Z,96254.28
2022-07-25T20:33:26.910Z,96258.72
2022-07-25T20:35:54.988Z,96251.56
2022-07-25T20:38:28.270Z,96269.28
2022-07-25T20:40:55.904Z,96276.66
2022-07-25T20:43:22.528Z,96293.91
2022-07-25T20:45:49.170Z,96306.19
2022-07-25T20:48:15.994Z,96332.38
2022-07-25T20:50:43.907Z,96345.63
2022-07-25T20:53:10.623Z,96347.78
2022-07-25T20:55:37.532Z,96349.72
2022-07-25T20:58:05.159Z,96365.31
2022-07-25T21:00:31.965Z,96366.00
2022-07-25T21:02:59.575Z,96365.03
2022-07-25T21:05:27.003Z,96360.25
2022-07-25T21:07:53.867Z,96349.50
2022-07-25T21:10:21.126Z,96358.06
2022-07-25T21:12:47.779Z,96363.84
2022-07-25T21:15:14.761Z,96375.88
2022-07-25T21:17:44.160Z,96358.94
2022-07-25T21:20:12.759Z,96352.25
2022-07-25T21:22:40.556Z,96354.72
2022-07-25T21:25:07.559Z,96362.31
2022-07-25T21:27:34.578Z,96363.53
2022-07-25T21:30:01.291Z,96370.75
2022-07-25T21:32:28.108Z,96370.38
2022-07-25T21:34:54.805Z,96362.38
2022-07-25T21:37:21.500Z,96368.78
2022-07-25T21:39:48.131Z,96371.25
2022-07-25T21:42:14.852Z,96373.97
2022-07-25T21:44:43.140Z,96385.19
2022-07-25T21:47:10.485Z,96389.16
2022-07-25T21:49:56.006Z,96384.00
2022-07-25T21:52:31.326Z,96387.38
2022-07-25T21:55:02.879Z,96390.44
2022-07-25T21:57:29.528Z,96382.72
2022-07-25T21:59:56.284Z,96390.53
2022-07-25T22:02:23.519Z,96392.50
2022-07-25T22:04:50.638Z,96392.03
2022-07-25T22:07:17.918Z,96396.47
2022-07-25T22:09:45.088Z,96400.88
2022-07-25T22:12:11.850Z,96404.59
2022-07-25T22:14:38.505Z,96401.25
2022-07-25T22:17:05.863Z,96412.94
2022-07-25T22:19:33.422Z,96407.78
2022-07-25T22:22:00.367Z,96422.81
2022-07-25T22:24:27.216Z,96436.00
2022-07-25T22:26:54.086Z,96431.69
2022-07-25T22:29:20.645Z,96434.50
2022-07-25T22:31:47.385Z,96448.09
2022-07-25T22:34:14.029Z,96442.16
2022-07-25T22:36:40.720Z,96437.06
2022-07-25T22:39:07.621Z,96429.56
2022-07-25T22:41:34.870Z,96437.13
2022-07-25T22:44:01.930Z,96444.50
2022-07-25T22:46:30.274Z,96441.94
2022-07-25T22:48:58.292Z,96443.81
2022-07-25T22:51:26.534Z,96443.56
2022-07-25T22:53:53.513Z,96452.78
2022-07-25T22:56:20.241Z,96460.31
2022-07-25T22:58:49.148Z,96474.03
2022-07-25T23:01:17.311Z,96473.03
2022-07-25T23:03:44.056Z,96477.69
2022-07-25T23:06:11.331Z,96474.44
2022-07-25T23:08:38.002Z,96488.56
2022-07-25T23:11:06.218Z,96497.25
2022-07-25T23:13:34.331Z,96505.72
2022-07-25T23:16:01.931Z,96507.13
2022-07-25T23:18:30.732Z,96505.88
2022-07-25T23:20:57.408Z,96508.31
2022-07-25T23:23:24.022Z,96523.38
2022-07-25T23:25:50.620Z,96520.91
2022-07-25T23:28:17.604Z,96526.31
2022-07-25T23:30:44.242Z,96528.41
2022-07-25T23:33:10.849Z,96526.19
2022-07-25T23:35:37.836Z,96533.63
2022-07-25T23:38:04.603Z,96546.22
2022-07-25T23:40:31.385Z,96532.84
2022-07-25T23:42:58.030Z,96537.50
2022-07-25T23:45:27.516Z,96536.38
2022-07-25T23:47:55.062Z,96546.81
2022-07-25T23:50:22.724Z,96539.91
2022-07-25T23:52:49.476Z,96558.19
2022-07-25T23:55:16.162Z,96556.59
2022-07-25T23:57:43.231Z,96554.66
